createdAt,value
2023-03-04T00:02:06.467Z,25.70
2023-03-04T00:04:33.256Z,24.43
2023-03-04T00:07:00.247Z,24.03
2023-03-04T00:09:27.198Z,25.67
2023-03-04T00:11:53.959Z,23.77
2023-03-04T00:14:21.141Z,26.13
2023-03-04T00:16:49.264Z,22.43
2023-03-04T00:19:16.114Z,21.83
2023-03-04T00:21:43.359Z,21.53
2023-03-04T00:24:10.109Z,18.13
2023-03-04T00:26:36.945Z,23.70
2023-03-04T00:29:03.877Z,22.60
2023-03-04T00:31:30.794Z,23.77
2023-03-04T00:33:57.537Z,19.27
2023-03-04T00:36:25.424Z,19.87
2023-03-04T00:38:52.275Z,19.73
2023-03-04T00:41:19.130Z,20.57
2023-03-04T00:43:45.976Z,20.70
2023-03-04T00:46:12.796Z,22.17
2023-03-04T00:48:39.719Z,23.17
2023-03-04T00:51:06.517Z,25.83
2023-03-04T00:53:33.248Z,23.43
2023-03-04T00:56:00.093Z,25.53
2023-03-04T00:58:26.971Z,22.90
2023-03-04T01:00:53.748Z,22.73
2023-03-04T01:03:20.784Z,25.20
2023-03-04T01:05:47.706Z,23.80
2023-03-04T01:08:14.486Z,24.77
2023-03-04T01:10:41.228Z,24.80
2023-03-04T01:13:08.259Z,22.43
2023-03-04T01:15:35.056Z,23.97
2023-03-04T01:18:01.934Z,24.20
2023-03-04T01:20:28.823Z,26.40
2023-03-04T01:22:55.567Z,23.57
2023-03-04T01:25:22.337Z,22.97
2023-03-04T01:27:49.211Z,25.30
2023-03-04T01:30:15.958Z,22.23
2023-03-04T01:32:42.722Z,21.70
2023-03-04T01:35:10.001Z,21.67
2023-03-04T01:37:36.809Z,19.80
2023-03-04T01:40:03.812Z,24.57
2023-03-04T01:42:32.022Z,24.20
2023-03-04T01:44:58.874Z,23.23
2023-03-04T01:47:28.170Z,24.37
2023-03-04T01:49:57.582Z,24.88
2023-03-04T01:52:24.484Z,25.05
2023-03-04T01:54:51.338Z,26.70
2023-03-04T01:57:25.819Z,27.63
2023-03-04T02:00:22.334Z,27.63
2023-03-04T02:02:51.037Z,28.57
2023-03-04T02:05:17.819Z,29.17
2023-03-04T02:07:44.561Z,30.30
2023-03-04T02:10:11.642Z,29.37
2023-03-04T02:12:38.521Z,28.27
2023-03-04T02:15:06.436Z,29.23
2023-03-04T02:17:33.321Z,28.70
2023-03-04T02:20:15.826Z,27.27
2023-03-04T02:22:47.526Z,27.77
2023-03-04T02:25:18.572Z,28.77
2023-03-04T02:27:45.314Z,27.33
2023-03-04T02:30:12.679Z,26.73
2023-03-04T02:32:39.455Z,27.37
2023-03-04T02:35:06.879Z,27.47
2023-03-04T02:37:33.726Z,27.80
2023-03-04T02:40:00.448Z,28.27
2023-03-04T02:42:27.263Z,29.97
2023-03-04T02:45:00.431Z,28.10
2023-03-04T02:47:27.179Z,29.73
2023-03-04T02:49:53.959Z,30.27
2023-03-04T02:52:22.748Z,30.63
2023-03-04T02:54:49.498Z,29.07
2023-03-04T02:57:16.325Z,25.50
2023-03-04T02:59:43.291Z,30.63
2023-03-04T03:02:10.232Z,29.13
2023-03-04T03:04:37.621Z,31.30
2023-03-04T03:07:04.581Z,30.93
2023-03-04T03:09:31.416Z,27.83
2023-03-04T03:11:58.188Z,27.47
2023-03-04T03:14:25.240Z,27.40
2023-03-04T03:16:52.049Z,29.20
2023-03-04T03:19:18.797Z,24.73
2023-03-04T03:21:45.708Z,32.90
2023-03-04T03:24:12.424Z,30.17
2023-03-04T03:26:40.197Z,28.93
2023-03-04T03:29:07.204Z,30.23
2023-03-04T03:31:34.123Z,29.63
2023-03-04T03:34:00.903Z,28.93
2023-03-04T03:36:27.904Z,27.93
2023-03-04T03:38:54.856Z,30.93
2023-03-04T03:41:21.644Z,27.67
2023-03-04T03:43:48.428Z,28.53
2023-03-04T03:46:15.343Z,28.67
2023-03-04T03:48:42.203Z,28.07
2023-03-04T03:51:09.061Z,28.90
2023-03-04T03:53:35.938Z,27.70
2023-03-04T03:56:02.745Z,27.80
2023-03-04T03:58:29.693Z,29.63
2023-03-04T04:00:58.325Z,29.63
2023-03-04T04:03:25.468Z,28.93
2023-03-04T04:05:52.425Z,30.30
2023-03-04T04:08:19.278Z,29.83
2023-03-04T04:10:46.160Z,28.07
2023-03-04T04:13:13.118Z,27.50
2023-03-04T04:15:39.904Z,26.63
2023-03-04T04:18:07.054Z,27.50
2023-03-04T04:20:34.296Z,29.60
2023-03-04T04:23:01.192Z,25.13
2023-03-04T04:25:28.358Z,21.77
2023-03-04T04:27:55.374Z,21.63
2023-03-04T04:30:22.219Z,22.80
2023-03-04T04:32:50.083Z,21.97
2023-03-04T04:35:17.205Z,20.47
2023-03-04T04:37:43.957Z,18.90
2023-03-04T04:40:11.415Z,18.27
2023-03-04T04:42:38.236Z,18.97
2023-03-04T04:45:05.486Z,14.07
2023-03-04T04:47:32.222Z,19.20
2023-03-04T04:49:59.148Z,18.30
2023-03-04T04:52:25.936Z,17.43
2023-03-04T04:54:52.663Z,14.97
2023-03-04T04:57:19.553Z,16.83
2023-03-04T04:59:46.425Z,15.47
2023-03-04T05:02:13.265Z,15.10
2023-03-04T05:04:40.162Z,15.03
2023-03-04T05:07:06.899Z,14.47
2023-03-04T05:09:33.716Z,15.13
2023-03-04T05:12:00.702Z,16.93
2023-03-04T05:14:27.518Z,13.93
2023-03-04T05:16:54.375Z,14.37
2023-03-04T05:19:21.623Z,13.27
2023-03-04T05:21:48.474Z,15.90
2023-03-04T05:24:15.298Z,13.97
2023-03-04T05:26:43.693Z,14.47
2023-03-04T05:29:10.472Z,15.10
2023-03-04T05:31:37.232Z,14.83
2023-03-04T05:34:04.437Z,14.93
2023-03-04T05:36:31.247Z,16.23
2023-03-04T05:38:57.998Z,14.17
2023-03-04T05:41:26.078Z,16.13
2023-03-04T05:43:53.090Z,15.17
2023-03-04T05:46:25.577Z,14.70
2023-03-04T05:48:53.593Z,14.00
2023-03-04T05:51:20.616Z,14.77
2023-03-04T05:53:47.623Z,16.63
2023-03-04T05:56:18.373Z,13.57
2023-03-04T05:58:45.198Z,10.60
2023-03-04T06:01:12.032Z,13.60
2023-03-04T06:03:39.154Z,12.90
2023-03-04T06:06:06.601Z,12.97
2023-03-04T06:08:33.498Z,12.43
2023-03-04T06:11:00.800Z,12.10
2023-03-04T06:13:27.771Z,13.47
2023-03-04T06:15:55.582Z,12.67
2023-03-04T06:18:23.071Z,12.33
2023-03-04T06:20:50.073Z,13.67
2023-03-04T06:23:17.333Z,13.07
2023-03-04T06:25:44.303Z,11.13
2023-03-04T06:28:11.131Z,13.47
2023-03-04T06:30:37.946Z,12.93
2023-03-04T06:33:04.878Z,11.10
2023-03-04T06:35:31.736Z,13.47
2023-03-04T06:37:58.459Z,13.37
2023-03-04T06:40:25.322Z,12.90
2023-03-04T06:42:52.060Z,11.63
2023-03-04T06:45:18.883Z,11.00
2023-03-04T06:47:45.851Z,11.77
2023-03-04T06:50:13.030Z,12.03
2023-03-04T06:52:40.175Z,12.00
2023-03-04T06:55:07.985Z,11.70
2023-03-04T06:57:34.836Z,10.73
2023-03-04T07:00:03.550Z,9.00
2023-03-04T07:02:30.458Z,10.97
2023-03-04T07:04:57.218Z,11.77
2023-03-04T07:07:25.792Z,11.63
2023-03-04T07:09:52.742Z,12.57
2023-03-04T07:12:19.506Z,9.50
2023-03-04T07:14:46.248Z,10.40
2023-03-04T07:17:13.201Z,11.00
2023-03-04T07:19:40.623Z,9.67
2023-03-04T07:22:07.502Z,11.60
2023-03-04T07:24:34.463Z,10.50
2023-03-04T07:27:01.310Z,11.03
2023-03-04T07:29:28.115Z,11.20
2023-03-04T07:31:55.682Z,10.60
2023-03-04T07:34:22.586Z,10.53
2023-03-04T07:36:49.390Z,11.40
2023-03-04T07:39:16.266Z,11.33
2023-03-04T07:41:43.124Z,10.73
2023-03-04T07:44:13.163Z,10.80
2023-03-04T07:46:40.336Z,10.93
2023-03-04T07:49:07.537Z,11.20
2023-03-04T07:51:35.200Z,11.53
2023-03-04T07:54:02.150Z,10.50
2023-03-04T07:56:31.422Z,10.70
2023-03-04T07:58:58.304Z,11.13
2023-03-04T08:01:35.802Z,10.77
2023-03-04T08:04:03.979Z,12.03
2023-03-04T08:06:30.794Z,10.93
2023-03-04T08:08:59.285Z,12.70
2023-03-04T08:11:26.108Z,10.97
2023-03-04T08:13:54.348Z,11.37
2023-03-04T08:16:21.947Z,10.90
2023-03-04T08:18:52.484Z,11.63
2023-03-04T08:21:19.870Z,11.07
2023-03-04T08:23:47.350Z,10.53
2023-03-04T08:26:21.106Z,13.73
2023-03-04T08:28:48.153Z,11.67
2023-03-04T08:31:15.288Z,11.15
2023-03-04T08:33:42.094Z,14.40
2023-03-04T08:36:09.162Z,11.68
2023-03-04T08:38:36.056Z,10.80
2023-03-04T08:41:04.210Z,12.73
2023-03-04T08:43:31.188Z,13.10
2023-03-04T08:45:58.011Z,10.93
2023-03-04T08:48:24.904Z,10.45
2023-03-04T08:50:51.917Z,10.77
2023-03-04T08:53:18.929Z,12.18
2023-03-04T08:55:46.220Z,11.55
2023-03-04T08:58:13.235Z,11.43
2023-03-04T09:00:43.263Z,11.05
2023-03-04T09:03:13.533Z,11.95
2023-03-04T09:05:40.674Z,12.05
2023-03-04T09:08:08.075Z,10.57
2023-03-04T09:10:34.958Z,10.90
2023-03-04T09:13:02.028Z,11.35
2023-03-04T09:15:28.958Z,11.05
2023-03-04T09:17:55.950Z,12.70
2023-03-04T09:20:23.381Z,10.90
2023-03-04T09:22:50.256Z,10.98
2023-03-04T09:25:17.218Z,14.45
2023-03-04T09:27:44.075Z,12.82
2023-03-04T09:30:11.470Z,15.18
2023-03-04T09:32:38.548Z,11.95
2023-03-04T09:35:05.822Z,11.60
2023-03-04T09:37:32.765Z,11.15
2023-03-04T09:39:59.714Z,15.30
2023-03-04T09:42:42.250Z,11.95
2023-03-04T09:45:11.785Z,11.13
2023-03-04T09:47:38.564Z,11.18
2023-03-04T09:50:08.045Z,12.20
2023-03-04T09:53:02.113Z,11.90
2023-03-04T09:55:28.921Z,11.43
2023-03-04T09:58:13.870Z,11.35
2023-03-04T10:00:57.085Z,12.48
2023-03-04T10:03:45.341Z,15.07
2023-03-04T10:06:13.787Z,12.35
2023-03-04T10:08:59.497Z,12.30
2023-03-04T10:11:47.192Z,12.82
2023-03-04T10:14:23.163Z,12.15
2023-03-04T10:17:01.084Z,11.43
2023-03-04T10:19:27.806Z,13.05
2023-03-04T10:21:54.552Z,13.63
2023-03-04T10:24:22.997Z,12.45
2023-03-04T10:26:54.389Z,10.77
2023-03-04T10:29:24.509Z,15.30
2023-03-04T10:31:51.560Z,12.45
2023-03-04T10:34:18.449Z,12.40
2023-03-04T10:36:54.899Z,12.48
2023-03-04T10:39:25.594Z,11.43
2023-03-04T10:42:02.592Z,11.18
2023-03-04T10:44:29.824Z,10.90
2023-03-04T10:46:57.466Z,16.05
2023-03-04T10:49:25.199Z,11.88
2023-03-04T10:52:02.314Z,11.05
2023-03-04T10:54:42.126Z,15.38
2023-03-04T10:57:23.898Z,10.93
2023-03-04T11:00:18.467Z,12.05
2023-03-04T11:02:46.301Z,13.80
2023-03-04T11:05:23.613Z,12.00
2023-03-04T11:07:56.225Z,16.58
2023-03-04T11:10:28.447Z,12.10
2023-03-04T11:13:02.164Z,11.70
2023-03-04T11:15:31.361Z,11.52
2023-03-04T11:18:04.686Z,14.15
2023-03-04T11:20:32.343Z,16.65
2023-03-04T11:23:10.176Z,13.93
2023-03-04T11:25:38.794Z,13.13
2023-03-04T11:28:22.227Z,13.40
2023-03-04T11:30:52.277Z,11.20
2023-03-04T11:33:29.105Z,13.93
2023-03-04T11:36:09.867Z,13.50
2023-03-04T11:38:40.377Z,12.60
2023-03-04T11:41:13.370Z,12.50
2023-03-04T11:43:42.514Z,11.25
2023-03-04T11:46:10.414Z,14.88
2023-03-04T11:48:40.315Z,13.55
2023-03-04T11:51:21.363Z,16.00
2023-03-04T11:53:57.105Z,13.73
2023-03-04T11:56:44.759Z,13.93
2023-03-04T11:59:26.465Z,13.80
2023-03-04T12:01:59.998Z,12.25
2023-03-04T12:05:03.658Z,12.02
2023-03-04T12:08:09.512Z,13.65
2023-03-04T12:11:04.316Z,11.07
2023-03-04T12:13:46.210Z,12.43
2023-03-04T12:16:25.088Z,12.52
2023-03-04T12:18:58.604Z,11.90
2023-03-04T12:21:34.741Z,12.40
2023-03-04T12:24:19.276Z,12.10
2023-03-04T12:26:58.793Z,11.27
2023-03-04T12:29:28.736Z,13.07
2023-03-04T12:32:04.821Z,12.98
2023-03-04T12:34:33.609Z,12.27
2023-03-04T12:37:27.851Z,12.38
2023-03-04T12:40:17.314Z,11.85
2023-03-04T12:42:53.072Z,12.68
2023-03-04T12:45:29.432Z,11.68
2023-03-04T12:48:11.460Z,12.68
2023-03-04T12:50:56.647Z,11.93
2023-03-04T12:53:38.337Z,12.50
2023-03-04T12:56:05.191Z,12.80
2023-03-04T12:58:32.807Z,11.45
2023-03-04T13:01:12.886Z,12.65
2023-03-04T13:04:06.031Z,12.20
2023-03-04T13:06:47.993Z,12.65
2023-03-04T13:09:35.918Z,11.85
2023-03-04T13:12:02.669Z,12.02
2023-03-04T13:14:30.483Z,12.65
2023-03-04T13:17:37.463Z,12.50
2023-03-04T13:20:32.377Z,11.90
2023-03-04T13:23:05.244Z,11.77
2023-03-04T13:25:45.271Z,14.57
2023-03-04T13:28:28.866Z,11.90
2023-03-04T13:30:56.000Z,15.05
2023-03-04T13:33:22.749Z,11.30
2023-03-04T13:35:50.560Z,11.57
2023-03-04T13:38:33.526Z,12.60
2023-03-04T13:41:09.481Z,13.68
2023-03-04T13:43:39.991Z,13.15
2023-03-04T13:46:19.241Z,11.98
2023-03-04T13:48:52.304Z,14.75
2023-03-04T13:51:46.285Z,12.30
2023-03-04T13:54:28.974Z,12.48
2023-03-04T13:57:01.783Z,17.05
2023-03-04T13:59:44.905Z,13.45
2023-03-04T14:02:12.715Z,14.52
2023-03-04T14:04:40.777Z,15.80
2023-03-04T14:07:22.220Z,15.35
2023-03-04T14:09:56.210Z,14.95
2023-03-04T14:12:23.413Z,15.95
2023-03-04T14:14:55.357Z,15.77
2023-03-04T14:17:45.782Z,16.08
2023-03-04T14:20:39.607Z,15.13
2023-03-04T14:23:26.546Z,16.42
2023-03-04T14:26:27.715Z,14.98
2023-03-04T14:28:57.586Z,15.15
2023-03-04T14:31:25.087Z,14.30
2023-03-04T14:33:59.961Z,14.90
2023-03-04T14:36:27.094Z,14.70
2023-03-04T14:38:54.912Z,16.55
2023-03-04T14:41:43.454Z,14.98
2023-03-04T14:44:24.139Z,16.15
2023-03-04T14:47:06.513Z,14.85
2023-03-04T14:49:35.876Z,15.38
2023-03-04T14:52:02.788Z,13.23
2023-03-04T14:54:39.328Z,14.73
2023-03-04T14:57:35.740Z,14.95
2023-03-04T15:00:38.207Z,15.52
2023-03-04T15:03:21.847Z,16.15
2023-03-04T15:05:49.079Z,14.20
2023-03-04T15:08:26.144Z,14.75
2023-03-04T15:11:00.547Z,15.70
2023-03-04T15:13:39.787Z,16.42
2023-03-04T15:16:06.963Z,14.85
2023-03-04T15:18:33.827Z,18.67
2023-03-04T15:21:02.038Z,15.23
2023-03-04T15:23:30.224Z,18.20
2023-03-04T15:26:01.974Z,15.13
2023-03-04T15:28:36.502Z,16.20
2023-03-04T15:31:04.386Z,15.80
2023-03-04T15:33:31.411Z,14.00
2023-03-04T15:36:02.353Z,15.35
2023-03-04T15:38:29.367Z,14.90
2023-03-04T15:40:58.481Z,13.90
2023-03-04T15:43:25.511Z,14.05
2023-03-04T15:45:52.662Z,14.02
2023-03-04T15:48:19.674Z,14.18
2023-03-04T15:50:57.237Z,14.02
2023-03-04T15:53:49.483Z,15.50
2023-03-04T15:56:36.530Z,13.90
2023-03-04T15:59:13.476Z,13.57
2023-03-04T16:01:40.427Z,13.77
2023-03-04T16:04:17.034Z,14.27
2023-03-04T16:06:44.778Z,13.85
2023-03-04T16:09:14.386Z,14.30
2023-03-04T16:11:44.549Z,12.35
2023-03-04T16:14:14.910Z,14.90
2023-03-04T16:16:44.588Z,14.32
2023-03-04T16:19:11.818Z,14.25
2023-03-04T16:21:38.591Z,16.30
2023-03-04T16:24:05.942Z,14.45
2023-03-04T16:26:32.767Z,14.85
2023-03-04T16:29:00.578Z,17.33
2023-03-04T16:31:27.545Z,14.18
2023-03-04T16:33:54.391Z,16.83
2023-03-04T16:36:27.660Z,13.35
2023-03-04T16:38:59.218Z,13.98
2023-03-04T16:41:28.185Z,13.25
2023-03-04T16:43:56.710Z,12.27
2023-03-04T16:46:23.900Z,14.02
2023-03-04T16:48:50.879Z,12.95
2023-03-04T16:51:19.567Z,13.27
2023-03-04T16:53:53.771Z,13.82
2023-03-04T16:56:20.858Z,18.70
2023-03-04T16:58:47.655Z,13.70
2023-03-04T17:01:26.103Z,13.65
2023-03-04T17:03:54.009Z,11.90
2023-03-04T17:06:21.182Z,14.80
2023-03-04T17:08:48.173Z,14.85
2023-03-04T17:11:19.713Z,14.90
2023-03-04T17:13:46.528Z,15.02
2023-03-04T17:16:13.366Z,13.45
2023-03-04T17:18:40.222Z,12.95
2023-03-04T17:21:08.728Z,13.65
2023-03-04T17:23:35.463Z,14.85
2023-03-04T17:26:02.274Z,14.07
2023-03-04T17:28:29.350Z,12.75
2023-03-04T17:30:56.205Z,13.10
2023-03-04T17:33:23.164Z,13.55
2023-03-04T17:35:50.130Z,13.55
2023-03-04T17:38:17.148Z,14.38
2023-03-04T17:40:44.049Z,15.40
2023-03-04T17:43:13.784Z,14.32
2023-03-04T17:48:07.889Z,13.63
2023-03-04T17:50:35.160Z,14.73
2023-03-04T17:53:01.996Z,13.13
2023-03-04T17:55:28.772Z,15.13
2023-03-04T17:57:57.599Z,14.82
2023-03-04T18:00:24.606Z,13.30
2023-03-04T18:02:51.454Z,13.07
2023-03-04T18:05:18.552Z,13.75
2023-03-04T18:07:45.294Z,13.63
2023-03-04T18:10:12.319Z,16.77
2023-03-04T18:12:39.340Z,13.75
2023-03-04T18:15:06.698Z,14.75
2023-03-04T18:17:33.424Z,13.52
2023-03-04T18:20:01.985Z,14.70
2023-03-04T18:22:29.657Z,15.05
2023-03-04T18:24:56.486Z,15.25
2023-03-04T18:27:23.286Z,14.55
2023-03-04T18:29:50.050Z,16.35
2023-03-04T18:32:17.045Z,15.35
2023-03-04T18:34:43.806Z,15.07
2023-03-04T18:37:10.568Z,15.07
2023-03-04T18:39:37.430Z,16.73
2023-03-04T18:42:04.315Z,15.38
2023-03-04T18:44:31.246Z,14.53
2023-03-04T18:46:58.096Z,17.07
2023-03-04T18:49:25.024Z,17.70
2023-03-04T18:51:52.100Z,17.87
2023-03-04T18:54:19.160Z,19.95
2023-03-04T18:56:51.764Z,19.35
2023-03-04T18:59:21.765Z,18.38
2023-03-04T19:01:48.600Z,29.33
2023-03-04T19:04:15.686Z,19.63
2023-03-04T19:06:42.513Z,36.83
2023-03-04T19:09:09.348Z,20.07
2023-03-04T19:11:36.185Z,19.17
2023-03-04T19:14:02.972Z,20.67
2023-03-04T19:16:29.814Z,19.07
2023-03-04T19:18:56.811Z,20.03
2023-03-04T19:21:23.555Z,18.10
2023-03-04T19:23:50.335Z,21.05
2023-03-04T19:26:19.561Z,19.10
2023-03-04T19:28:46.307Z,18.65
2023-03-04T19:31:13.527Z,18.27
2023-03-04T19:33:40.936Z,16.73
2023-03-04T19:36:08.460Z,20.48
2023-03-04T19:38:35.528Z,19.40
2023-03-04T19:41:13.365Z,18.47
2023-03-04T19:43:40.448Z,16.27
2023-03-04T19:46:07.837Z,15.80
2023-03-04T19:48:35.248Z,15.57
2023-03-04T19:51:02.291Z,16.37
2023-03-04T19:53:29.626Z,17.73
2023-03-04T19:55:56.493Z,14.73
2023-03-04T19:58:23.358Z,16.07
2023-03-04T20:00:52.158Z,15.83
2023-03-04T20:03:19.131Z,15.17
2023-03-04T20:05:46.595Z,17.23
2023-03-04T20:08:13.583Z,40.53
2023-03-04T20:10:41.332Z,19.07
2023-03-04T20:13:08.811Z,19.57
2023-03-04T20:15:35.677Z,18.33
2023-03-04T20:18:02.651Z,19.08
2023-03-04T20:20:29.439Z,19.07
2023-03-04T20:22:56.688Z,21.30
2023-03-04T20:25:24.586Z,22.07
2023-03-04T20:27:51.446Z,22.03
2023-03-04T20:30:18.595Z,21.53
2023-03-04T20:32:45.619Z,21.20
2023-03-04T20:35:15.134Z,23.03
2023-03-04T20:37:42.348Z,21.02
2023-03-04T20:40:11.168Z,21.10
2023-03-04T20:42:38.018Z,23.02
2023-03-04T20:45:05.174Z,25.60
2023-03-04T20:47:32.216Z,20.27
2023-03-04T20:49:58.956Z,20.17
2023-03-04T20:52:25.749Z,19.90
2023-03-04T20:54:52.796Z,21.60
2023-03-04T20:57:19.615Z,23.00
2023-03-04T20:59:46.342Z,24.70
2023-03-04T21:02:14.825Z,26.87
2023-03-04T21:04:41.787Z,28.93
2023-03-04T21:07:08.544Z,28.07
2023-03-04T21:09:35.396Z,29.43
2023-03-04T21:12:02.272Z,24.83
2023-03-04T21:14:30.232Z,27.13
2023-03-04T21:16:58.601Z,25.00
2023-03-04T21:19:29.647Z,29.23
2023-03-04T21:21:56.926Z,26.07
2023-03-04T21:24:26.701Z,26.40
2023-03-04T21:26:53.475Z,28.13
2023-03-04T21:29:22.323Z,28.53
2023-03-04T21:31:54.224Z,30.43
2023-03-04T21:34:28.238Z,28.77
2023-03-04T21:36:55.260Z,28.33
2023-03-04T21:39:23.215Z,30.23
2023-03-04T21:41:50.192Z,32.27
2023-03-04T21:44:27.791Z,32.13
2023-03-04T21:46:59.218Z,41.67
2023-03-04T21:49:26.492Z,38.57
2023-03-04T21:51:53.299Z,34.17
2023-03-04T21:54:20.150Z,38.33
2023-03-04T21:56:47.143Z,32.47
2023-03-04T21:59:14.334Z,34.53
2023-03-04T22:01:41.731Z,32.17
2023-03-04T22:04:08.668Z,33.33
2023-03-04T22:06:35.659Z,33.40
2023-03-04T22:09:02.845Z,34.90
2023-03-04T22:11:30.316Z,32.67
2023-03-04T22:13:58.317Z,32.30
2023-03-04T22:16:25.302Z,34.53
2023-03-04T22:18:52.232Z,31.47
2023-03-04T22:21:19.649Z,30.57
2023-03-04T22:23:46.473Z,31.60
2023-03-04T22:26:18.162Z,34.03
2023-03-04T22:28:45.183Z,32.73
2023-03-04T22:31:29.901Z,29.10
2023-03-04T22:34:01.095Z,32.07
2023-03-04T22:36:34.417Z,29.63
2023-03-04T22:39:02.124Z,34.00
2023-03-04T22:41:28.908Z,34.50
2023-03-04T22:43:56.067Z,36.23
2023-03-04T22:46:27.626Z,33.60
2023-03-04T22:48:56.005Z,30.30
2023-03-04T22:51:22.757Z,34.27
2023-03-04T22:53:50.363Z,33.03
2023-03-04T22:56:17.614Z,40.60
2023-03-04T22:58:45.111Z,39.70
2023-03-04T23:01:12.661Z,33.40
2023-03-04T23:03:40.169Z,31.57
2023-03-04T23:06:08.078Z,30.30
2023-03-04T23:08:35.756Z,31.27
2023-03-04T23:11:03.267Z,30.87
2023-03-04T23:13:30.188Z,31.60
2023-03-04T23:15:57.091Z,25.73
2023-03-04T23:18:24.065Z,27.90
2023-03-04T23:20:50.883Z,27.10
2023-03-04T23:23:17.626Z,28.20
2023-03-04T23:25:46.462Z,24.83
2023-03-04T23:28:13.200Z,26.10
2023-03-04T23:30:39.990Z,24.17
2023-03-04T23:33:06.895Z,23.97
2023-03-04T23:35:33.689Z,26.73
2023-03-04T23:38:00.528Z,23.23
2023-03-04T23:40:27.414Z,22.33
2023-03-04T23:42:54.206Z,23.90
2023-03-04T23:45:20.980Z,23.33
2023-03-04T23:47:47.901Z,23.00
2023-03-04T23:50:16.144Z,22.70
2023-03-04T23:52:44.099Z,21.87
2023-03-04T23:55:15.877Z,23.43
2023-03-04T23:57:42.980Z,22.83
